Ikke nødvendig med spesiell oppmerksomhet.   -   Ingen advarsler for øyeblikket

METAR Rapporter

 

ENZV - Stavanger
Oppdatert: 28/06/2017 22:50
hovedsaklig skyet
hovedsaklig skyet
 Vind fra N
Vind: N 6 km/h
Temperatur: 14°C
Duggpunkt: 11°C
Fuktighet: 82%
Barometer: 1005 hPa
Skyet: hovedsaklig skyet
Sikt: 10 km
2017/06/28 20:50 ENZV 282050Z 36003KT 9999 FEW035 BKN090 14/11 Q1005
ENBR - Bergen
Oppdatert: 28/06/2017 22:50
klart
klart
 Vind fra N
Vind: N 13 km/h
Temperatur: 15°C
Duggpunkt: 8°C
Fuktighet: 63%
Barometer: 1006 hPa
Oversikt: klart
Sikt: greater than 10 km
2017/06/28 20:50 ENBR 282050Z 35007KT CAVOK 15/08 Q1006 RMK WIND 1200FT 01011KT
 
ENHD - Haugesund
Oppdatert: 28/06/2017 22:50
klart
klart
 Vind fra NØ
Vind: NØ 6 km/h
Temperatur: 15°C
Duggpunkt: 10°C
Fuktighet: 72%
Barometer: 1006 hPa
Oversikt: klart
Sikt: greater than 10 km
2017/06/28 20:50 ENHD 282050Z 05003KT CAVOK 15/10 Q1006
ENCN - Kristiansand
Oppdatert: 28/06/2017 22:50
Light rain, mostly cloudy
Light rain, mostly cloudy
 Vind fra ØSØ
Vind: ØSØ 6 km/h
Temperatur: 14°C
Duggpunkt: 11°C
Fuktighet: 82%
Barometer: 1006 hPa
Oversikt: lett regn
Skyet: hovedsaklig skyet
Sikt: 10 km
2017/06/28 20:50 ENCN 282050Z 12003KT 080V160 9999 -RA FEW025 BKN047 14/11 Q1006
 
ENBO - Bodø
Oppdatert: 28/06/2017 22:50
delvis skyet
delvis skyet
 Vind fra SV
Vind: SV 9 km/h
Temperatur: 9°C
Vindkjøling: 7°C
Duggpunkt: 6°C
Fuktighet: 82%
Barometer: 1014 hPa
Skyet: delvis skyet
Sikt: 10 km
2017/06/28 20:50 ENBO 282050Z 23005KT 9999 FEW020CB SCT045 09/06 Q1014 NOSIG
ENKR - Kirkenes
Oppdatert: 28/06/2017 22:50
hovedsaklig skyet
hovedsaklig skyet
 Vind fra varies
Vind: varies 2 km/h
Temperatur: 8°C
Duggpunkt: 5°C
Fuktighet: 82%
Barometer: 1012 hPa
Skyet: hovedsaklig skyet
Sikt: 10 km
2017/06/28 20:50 ENKR 282050Z VRB01KT 9999 FEW027 BKN044 08/05 Q1012 RMK WIND 731FT VRB02KT
 
ENVA - Trondheim
Oppdatert: 28/06/2017 22:50
klart
klart
 Vind fra varies
Vind: varies 6 km/h
Temperatur: 13°C
Duggpunkt: 5°C
Fuktighet: 59%
Barometer: 1012 hPa
Oversikt: klart
Sikt: greater than 10 km
2017/06/28 20:50 ENVA 282050Z VRB03KT CAVOK 13/05 Q1012 RMK WIND 670FT 05006KT
ENGM - Oslo
Oppdatert: 28/06/2017 22:50
klart
klart
 Vind fra varies
Vind: varies 4 km/h
Temperatur: 17°C
Duggpunkt: 2°C
Fuktighet: 37%
Barometer: 1009 hPa
Oversikt: klart
Sikt: greater than 10 km
2017/06/28 20:50 ENGM 282050Z VRB02KT CAVOK 17/02 Q1009 NOSIG